createdAt,value
2022-12-27T00:08:07.739Z,94.29
2022-12-27T00:18:08.337Z,96.61
2022-12-27T00:28:08.090Z,98.35
2022-12-27T00:38:08.204Z,99.91
2022-12-27T00:48:08.407Z,99.99
2022-12-27T00:58:08.682Z,99.99
2022-12-27T01:08:08.772Z,99.99
2022-12-27T01:18:08.977Z,97.11
2022-12-27T01:28:09.176Z,97.26
2022-12-27T01:38:09.421Z,90.58
2022-12-27T01:48:09.597Z,90.66
2022-12-27T01:58:09.808Z,89.98
2022-12-27T02:08:09.999Z,92.24
2022-12-27T02:18:10.218Z,96.33
2022-12-27T02:28:10.415Z,98.39
2022-12-27T02:38:10.686Z,99.73
2022-12-27T02:48:10.773Z,97.04
2022-12-27T02:58:11.242Z,98.13
2022-12-27T03:08:11.194Z,97.92
2022-12-27T03:18:11.421Z,99.26
2022-12-27T03:28:11.653Z,99.99
2022-12-27T03:38:11.869Z,99.99
2022-12-27T03:48:11.941Z,99.99
2022-12-27T03:58:12.165Z,99.99
2022-12-27T04:08:12.344Z,99.99
2022-12-27T04:18:12.615Z,97.28
2022-12-27T04:28:12.693Z,95.57
2022-12-27T04:38:12.926Z,95.47
2022-12-27T04:48:13.085Z,96.76
2022-12-27T04:58:13.338Z,96.86
2022-12-27T05:08:13.526Z,96.51
2022-12-27T05:18:13.767Z,95.99
2022-12-27T05:28:13.958Z,94.95
2022-12-27T05:38:14.178Z,94.84
2022-12-27T05:48:14.249Z,96.80
2022-12-27T05:58:14.484Z,95.35
2022-12-27T06:08:14.648Z,94.20
2022-12-27T06:18:15.005Z,92.91
2022-12-27T06:28:15.092Z,92.49
2022-12-27T06:38:15.235Z,92.08
2022-12-27T06:48:15.421Z,93.99
2022-12-27T06:58:15.648Z,93.68
2022-12-27T07:08:15.815Z,94.76
2022-12-27T07:18:16.049Z,94.35
2022-12-27T07:28:16.235Z,93.48
2022-12-27T07:38:16.349Z,95.39
2022-12-27T07:48:16.736Z,93.62
2022-12-27T07:58:16.757Z,95.50
2022-12-27T08:08:16.934Z,97.19
2022-12-27T08:18:17.254Z,98.71
2022-12-27T08:28:17.552Z,97.94
2022-12-27T08:38:17.441Z,93.60
2022-12-27T08:48:17.727Z,91.64
2022-12-27T08:58:17.871Z,90.45
2022-12-27T09:08:18.355Z,84.38
2022-12-27T09:18:18.281Z,82.65
2022-12-27T09:28:18.364Z,83.02
2022-12-27T09:38:18.481Z,85.86
2022-12-27T09:48:18.853Z,84.50
2022-12-27T09:58:18.849Z,84.12
2022-12-27T10:08:19.127Z,83.06
2022-12-27T10:18:19.266Z,85.31
2022-12-27T10:28:19.367Z,86.52
2022-12-27T10:38:19.486Z,80.86
2022-12-27T10:48:19.679Z,80.23
2022-12-27T10:58:19.904Z,74.67
2022-12-27T11:08:20.066Z,77.10
2022-12-27T11:18:20.317Z,74.12
2022-12-27T11:28:20.702Z,76.04
2022-12-27T11:38:20.683Z,73.19
2022-12-27T11:48:20.848Z,73.50
2022-12-27T11:58:21.248Z,69.98
2022-12-27T12:08:21.186Z,70.39
2022-12-27T12:18:21.403Z,72.44
2022-12-27T12:28:47.685Z,70.42
2022-12-27T12:38:22.820Z,71.24
2022-12-27T12:48:21.981Z,70.21
2022-12-27T12:58:22.241Z,68.10
2022-12-27T13:08:22.335Z,67.82
2022-12-27T13:18:28.356Z,69.49
2022-12-27T13:28:23.737Z,72.16
2022-12-27T13:38:23.146Z,74.50
2022-12-27T13:48:23.083Z,74.80
2022-12-27T13:58:23.305Z,74.71
2022-12-27T14:08:23.632Z,74.53
2022-12-27T14:18:23.650Z,77.49
2022-12-27T14:28:23.817Z,77.39
2022-12-27T14:38:24.050Z,78.56
2022-12-27T14:48:24.225Z,80.35
2022-12-27T14:58:24.513Z,81.05
2022-12-27T15:08:24.766Z,82.08
2022-12-27T15:18:24.771Z,84.01
2022-12-27T15:28:24.934Z,86.99
2022-12-27T15:38:25.188Z,89.42
2022-12-27T15:48:25.382Z,88.39
2022-12-27T15:58:25.633Z,90.50
2022-12-27T16:08:26.824Z,91.37
2022-12-27T16:18:26.073Z,91.37
2022-12-27T16:28:26.270Z,88.94
2022-12-27T16:38:26.585Z,88.11
2022-12-27T16:48:26.843Z,91.76
2022-12-27T16:58:27.166Z,92.63
2022-12-27T17:08:27.007Z,92.59
2022-12-27T17:18:27.402Z,92.01
2022-12-27T17:28:27.465Z,92.94
2022-12-27T17:38:27.651Z,91.60
2022-12-27T17:48:27.707Z,92.47
2022-12-27T17:58:27.939Z,90.91
2022-12-27T18:08:28.105Z,92.66
2022-12-27T18:18:28.461Z,94.26
2022-12-27T18:28:33.051Z,96.12
2022-12-27T18:38:29.663Z,97.72
2022-12-27T18:48:28.833Z,99.99
2022-12-27T18:58:29.070Z,99.26
2022-12-27T19:08:29.507Z,99.99
2022-12-27T19:18:29.401Z,99.99
2022-12-27T19:28:29.587Z,99.99
2022-12-27T19:38:29.745Z,99.99
2022-12-27T19:48:29.896Z,99.99
2022-12-27T19:58:30.131Z,99.99
2022-12-27T20:08:30.320Z,99.99
2022-12-27T20:18:30.433Z,99.99
2022-12-27T20:28:30.605Z,99.99
2022-12-27T20:38:30.834Z,99.99
2022-12-27T20:48:31.157Z,99.99
2022-12-27T20:58:31.218Z,99.48
2022-12-27T21:08:31.304Z,96.69
2022-12-27T21:18:31.428Z,96.21
2022-12-27T21:28:31.616Z,96.52
2022-12-27T21:38:31.752Z,94.57
2022-12-27T21:48:31.823Z,93.01
2022-12-27T21:58:32.057Z,92.69
2022-12-27T22:08:32.242Z,90.54
2022-12-27T22:18:32.475Z,89.40
2022-12-27T22:28:32.946Z,88.88
2022-12-27T22:38:32.910Z,90.10
2022-12-27T22:48:32.971Z,92.36
2022-12-27T22:58:33.206Z,95.51
2022-12-27T23:08:33.368Z,99.17
2022-12-27T23:18:33.630Z,99.99
2022-12-27T23:28:33.826Z,99.99
2022-12-27T23:38:34.066Z,99.99
2022-12-27T23:48:34.237Z,95.67
2022-12-27T23:58:34.476Z,90.83
